»·PEaware :: N47DT KAVX-KSAN

N47DT :: KAVX-KSAN

FLIGHT INFORMATION

Flight Status: Arrived
Operator: Privately registered:
United States
More flights under this callsign
Pilot: Wayne C. (13792)
Aircraft: CESSNA T210 TURBO CENTURION
(T210)
More flights by this aircraft type
Origin: KAVX Catalina
United States
Destination: KSAN San Diego Intl-Lindbergh
United States
More flights between these airports :: More routes between these airports
Route: SXC V208 OCN V23 MZB
File this flight plan on PilotEdge
Remarks: i-8
Altitude:
(Current/Filed)
5,000ft
Speed:
(Current/Filed)
130kts
Departed: 31-May-20 03:05 PM
Arrived: 31-May-20 03:57 PM
Distance/Time
Traveled:
74nm/0:52
Distance/Time
To Go:
Arrived

Flight Plot

Page will automatically refresh every two minutes.


Map Options




Map Legend


Flown Route
Filed Route
Departure Airport
Arrival Airport
Navaid (VOR, NDB)
Fix

Horizontal Profiles

Position Reports

Time Latitude Longitude Heading Altitude Ground
Speed
31-May-20 14:54 33.403950 -118.415159 146 1587ft 0kts
31-May-20 14:55 33.403950 -118.415159 146 1587ft 0kts
31-May-20 14:56 33.403950 -118.415159 146 1587ft 0kts
31-May-20 14:57 33.403950 -118.415159 146 1587ft 0kts
31-May-20 14:58 33.403950 -118.415159 146 1587ft 0kts
31-May-20 14:59 33.403950 -118.415159 146 1587ft 0kts
31-May-20 15:00 33.404653 -118.415089 352 1585ft 6kts
31-May-20 15:01 33.406573 -118.412441 53 1560ft 7kts
31-May-20 15:02 33.407125 -118.411506 58 1553ft 0kts
31-May-20 15:03 33.407134 -118.411488 58 1553ft 0kts
31-May-20 15:04 33.401974 -118.423073 233 1855ft 80kts
31-May-20 15:05 33.379789 -118.430468 129 2611ft 125kts
31-May-20 15:06 33.370540 -118.390224 95 3490ft 132kts
31-May-20 15:07 33.365521 -118.346299 98 4416ft 134kts
31-May-20 15:08 33.359599 -118.300981 99 5005ft 148kts
31-May-20 15:09 33.352991 -118.250847 99 5005ft 156kts
31-May-20 15:10 33.346174 -118.199073 99 5004ft 157kts
31-May-20 15:11 33.339424 -118.147903 99 5004ft 153kts
31-May-20 15:12 33.332789 -118.097771 99 5004ft 151kts
31-May-20 15:13 33.326160 -118.047850 99 5004ft 151kts
31-May-20 15:14 33.319539 -117.998157 99 5004ft 151kts
31-May-20 15:15 33.312903 -117.948500 99 5004ft 151kts
31-May-20 15:16 33.306256 -117.898925 99 5004ft 151kts
31-May-20 15:17 33.299581 -117.849287 99 5004ft 151kts
31-May-20 15:18 33.292914 -117.799854 99 5004ft 151kts
31-May-20 15:19 33.286731 -117.754150 99 5004ft 151kts
31-May-20 15:20 33.279472 -117.704709 100 5004ft 151kts
31-May-20 15:21 33.271972 -117.655475 100 5004ft 151kts
31-May-20 15:22 33.264488 -117.606028 100 5004ft 151kts
31-May-20 15:23 33.257373 -117.556619 97 5004ft 151kts
31-May-20 15:24 33.251534 -117.506973 97 5004ft 151kts
31-May-20 15:25 33.245501 -117.457322 98 5004ft 151kts
31-May-20 15:26 33.230033 -117.413561 151 5002ft 150kts
31-May-20 15:27 33.190678 -117.396369 160 5004ft 150kts
31-May-20 15:28 33.151088 -117.379919 160 5004ft 151kts
31-May-20 15:29 33.111492 -117.363271 160 5004ft 151kts
31-May-20 15:30 33.072494 -117.346883 160 5011ft 150kts
31-May-20 15:31 33.033300 -117.330429 160 5023ft 150kts
31-May-20 15:32 32.998748 -117.305959 124 5023ft 150kts
31-May-20 15:33 32.976720 -117.265867 123 5022ft 151kts
31-May-20 15:34 32.954389 -117.225060 123 5022ft 151kts
31-May-20 15:35 32.932173 -117.183799 121 5022ft 151kts
31-May-20 15:36 32.911018 -117.142033 121 5022ft 151kts
31-May-20 15:37 32.889654 -117.099812 121 5022ft 151kts
31-May-20 15:38 32.868206 -117.057414 121 5022ft 151kts
31-May-20 15:39 32.846759 -117.015005 121 5022ft 151kts
31-May-20 15:40 32.825360 -116.972679 121 5022ft 151kts
31-May-20 15:41 32.803983 -116.930388 120 5022ft 151kts
31-May-20 15:42 32.782389 -116.887653 120 5022ft 151kts
31-May-20 15:43 32.749682 -116.861944 165 5022ft 148kts
31-May-20 15:44 32.709804 -116.850730 170 5022ft 146kts
31-May-20 15:45 32.669691 -116.843885 171 5022ft 145kts
31-May-20 15:46 32.651060 -116.873020 277 5023ft 144kts
31-May-20 15:47 32.660723 -116.919168 284 5004ft 141kts
31-May-20 15:48 32.671526 -116.963100 284 5004ft 136kts
31-May-20 15:49 32.682110 -116.999498 301 4432ft 105kts
31-May-20 15:50 32.694149 -117.029364 288 3423ft 94kts
31-May-20 15:51 32.701396 -117.057724 288 2496ft 83kts
31-May-20 15:52 32.707776 -117.083724 288 1669ft 83kts
31-May-20 15:53 32.714928 -117.108711 284 1620ft 92kts
31-May-20 15:54 32.721001 -117.139814 283 1429ft 93kts
31-May-20 15:55 32.728804 -117.170578 289 381ft 90kts
31-May-20 15:56 32.732870 -117.188390 209 20ft 8kts
31-May-20 15:57 32.732387 -117.188649 196 20ft 0kts
31-May-20 15:58 32.732612 -117.190244 260 20ft 19kts

Navigation Log

Ident Type
Flight plan parsing failed, navigation log unavailable